Time,TemperatureF,DewpointF,PressureIn,WindDirection,WindDirectionDegrees,WindSpeedMPH,WindSpeedGustMPH,Humidity,HourlyPrecipIn,Conditions,Clouds,dailyrainin,SoftwareType,DateUTC
2013-02-24 00:00:00,27.3,20.5,29.97,SSE,158,6.3,6.3,75,0.00,,---,0.00,VWS V14.01,2013-02-24 06:00:00,
2013-02-24 00:05:00,27.1,20.3,29.97,SE,135,2.5,4.0,75,0.00,,---,0.00,VWS V14.01,2013-02-24 06:05:00,
2013-02-24 00:10:00,27.1,20.3,29.97,SSE,158,5.4,5.4,75,0.00,,---,0.00,VWS V14.01,2013-02-24 06:10:00,
2013-02-24 00:15:00,27.1,20.3,29.94,SE,135,3.6,4.3,75,0.00,,---,0.00,VWS V14.01,2013-02-24 06:15:00,
2013-02-24 00:21:00,27.7,20.5,29.94,SE,135,7.6,7.6,74,0.00,,---,0.00,VWS V14.01,2013-02-24 06:21:00,
2013-02-24 00:26:00,28.0,20.2,29.94,SSE,158,3.1,7.8,72,0.00,,---,0.00,VWS V14.01,2013-02-24 06:26:00,
2013-02-24 00:31:00,28.2,20.0,29.91,SSE,158,2.9,5.4,71,0.00,,---,0.00,VWS V14.01,2013-02-24 06:31:00,
2013-02-24 00:36:00,28.2,19.7,29.91,SSE,158,2.7,5.6,70,0.00,,---,0.00,VWS V14.01,2013-02-24 06:36:00,
2013-02-24 00:42:00,28.4,19.9,29.94,South,180,3.6,9.6,70,0.00,,---,0.00,VWS V14.01,2013-02-24 06:42:00,
2013-02-24 00:47:00,28.6,19.7,29.94,ESE,112,3.6,4.7,69,0.00,,---,0.00,VWS V14.01,2013-02-24 06:47:00,
2013-02-24 00:53:00,28.6,19.4,29.94,SSE,158,4.3,5.4,68,0.00,,---,0.00,VWS V14.01,2013-02-24 06:53:00,
2013-02-24 00:58:00,28.8,19.2,29.91,South,180,2.0,5.4,67,0.00,,---,0.00,VWS V14.01,2013-02-24 06:58:00,
2013-02-24 01:03:00,28.6,19.0,29.91,South,180,0.0,2.7,67,0.00,,---,0.00,VWS V14.01,2013-02-24 07:03:00,
2013-02-24 01:08:00,28.8,19.2,29.91,SSE,158,2.0,3.1,67,0.00,,---,0.00,VWS V14.01,2013-02-24 07:08:00,
2013-02-24 01:13:00,28.8,18.9,29.94,SSW,202,1.6,6.0,66,0.00,,---,0.00,VWS V14.01,2013-02-24 07:13:00,
2013-02-24 01:18:00,28.8,18.9,29.94,South,180,2.7,4.0,66,0.00,,---,0.00,VWS V14.01,2013-02-24 07:18:00,
2013-02-24 01:23:00,28.8,18.5,29.94,SSW,202,5.6,8.1,65,0.00,,---,0.00,VWS V14.01,2013-02-24 07:23:00,
2013-02-24 01:28:00,28.6,18.3,29.94,SE,135,2.7,4.7,65,0.00,,---,0.00,VWS V14.01,2013-02-24 07:28:00,
2013-02-24 01:33:00,28.6,18.3,29.94,SSE,158,3.4,3.6,65,0.00,,---,0.00,VWS V14.01,2013-02-24 07:33:00,
2013-02-24 01:38:00,28.6,18.3,29.94,SSE,158,1.6,4.7,65,0.00,,---,0.00,VWS V14.01,2013-02-24 07:38:00,
2013-02-24 01:43:00,28.4,18.1,29.91,SSE,158,4.0,4.0,65,0.00,,---,0.00,VWS V14.01,2013-02-24 07:43:00,
2013-02-24 01:48:00,28.4,18.1,29.91,SSE,158,2.5,4.7,65,0.00,,---,0.00,VWS V14.01,2013-02-24 07:48:00,
2013-02-24 01:53:00,28.2,18.0,29.91,South,180,3.4,4.0,65,0.00,,---,0.00,VWS V14.01,2013-02-24 07:53:00,
2013-02-24 01:58:00,28.0,18.2,29.94,SSE,158,2.0,6.0,66,0.00,,---,0.00,VWS V14.01,2013-02-24 07:58:00,
2013-02-24 02:03:00,28.0,18.2,29.94,South,180,2.2,3.8,66,0.00,,---,0.00,VWS V14.01,2013-02-24 08:03:00,
2013-02-24 02:08:00,27.9,18.0,29.94,SSW,202,2.0,3.1,66,0.00,,---,0.00,VWS V14.01,2013-02-24 08:08:00,
2013-02-24 02:13:00,27.7,17.8,29.94,SSE,158,0.0,0.0,66,0.00,,---,0.00,VWS V14.01,2013-02-24 08:13:00,
2013-02-24 02:18:00,27.5,18.0,29.94,SE,135,1.6,5.6,67,0.00,,---,0.00,VWS V14.01,2013-02-24 08:18:00,
2013-02-24 02:23:00,27.5,18.3,29.94,SSE,158,2.5,5.4,68,0.00,,---,0.00,VWS V14.01,2013-02-24 08:23:00,
2013-02-24 02:28:00,27.5,18.0,29.91,SE,135,3.8,4.7,67,0.00,,---,0.00,VWS V14.01,2013-02-24 08:28:00,
2013-02-24 02:33:00,27.3,17.8,29.91,South,180,2.2,3.8,67,0.00,,---,0.00,VWS V14.01,2013-02-24 08:33:00,
2013-02-24 02:38:00,27.3,18.2,29.91,SSE,158,4.3,4.3,68,0.00,,---,0.00,VWS V14.01,2013-02-24 08:38:00,
2013-02-24 02:43:00,27.1,18.0,29.91,ESE,112,4.9,5.4,68,0.00,,---,0.00,VWS V14.01,2013-02-24 08:43:00,
2013-02-24 02:48:00,27.3,18.2,29.91,SE,135,3.8,4.3,68,0.00,,---,0.00,VWS V14.01,2013-02-24 08:48:00,
2013-02-24 02:53:00,27.3,18.2,29.91,SSE,158,0.0,4.3,68,0.00,,---,0.00,VWS V14.01,2013-02-24 08:53:00,
2013-02-24 02:59:00,27.5,18.7,29.88,SE,135,3.1,3.8,69,0.00,,---,0.00,VWS V14.01,2013-02-24 08:59:00,
2013-02-24 03:05:00,27.5,18.7,29.88,SE,135,5.8,5.8,69,0.00,,---,0.00,VWS V14.01,2013-02-24 09:05:00,
2013-02-24 03:11:00,27.7,18.5,29.88,SE,135,3.4,3.6,68,0.00,,---,0.00,VWS V14.01,2013-02-24 09:11:00,
2013-02-24 03:16:00,27.7,18.5,29.88,SSE,158,2.5,6.3,68,0.00,,---,0.00,VWS V14.01,2013-02-24 09:16:00,
2013-02-24 03:21:00,27.7,18.5,29.88,SSE,158,5.8,5.8,68,0.00,,---,0.00,VWS V14.01,2013-02-24 09:21:00,
2013-02-24 03:26:00,27.9,18.3,29.88,SE,135,3.6,5.6,67,0.00,,---,0.00,VWS V14.01,2013-02-24 09:26:00,
2013-02-24 03:31:00,27.9,18.3,29.88,SSE,158,5.6,5.6,67,0.00,,---,0.00,VWS V14.01,2013-02-24 09:31:00,
2013-02-24 03:37:00,27.9,18.3,29.88,SSW,202,3.6,5.8,67,0.00,,---,0.00,VWS V14.01,2013-02-24 09:37:00,
2013-02-24 03:42:00,27.9,18.3,29.91,SSE,158,2.9,4.0,67,0.00,,---,0.00,VWS V14.01,2013-02-24 09:42:00,
2013-02-24 03:47:00,27.9,18.3,29.91,SSE,158,4.5,5.8,67,0.00,,---,0.00,VWS V14.01,2013-02-24 09:47:00,
2013-02-24 03:52:00,28.0,18.5,29.91,SSE,158,3.1,4.0,67,0.00,,---,0.00,VWS V14.01,2013-02-24 09:52:00,
2013-02-24 03:57:00,27.9,18.3,29.91,South,180,2.7,4.7,67,0.00,,---,0.00,VWS V14.01,2013-02-24 09:57:00,
2013-02-24 04:02:00,27.9,18.3,29.91,SSE,158,5.4,6.5,67,0.00,,---,0.00,VWS V14.01,2013-02-24 10:02:00,
2013-02-24 04:07:00,27.9,18.3,29.91,SE,135,4.3,5.8,67,0.00,,---,0.00,VWS V14.01,2013-02-24 10:07:00,
2013-02-24 04:12:00,27.9,18.7,29.91,SSE,158,3.6,4.0,68,0.00,,---,0.00,VWS V14.01,2013-02-24 10:12:00,
2013-02-24 04:17:00,27.9,18.7,29.91,SE,135,1.1,3.6,68,0.00,,---,0.00,VWS V14.01,2013-02-24 10:17:00,
2013-02-24 04:22:00,27.7,18.5,29.91,SSE,158,3.4,4.0,68,0.00,,---,0.00,VWS V14.01,2013-02-24 10:22:00,
2013-02-24 04:27:00,27.9,19.0,29.91,SSE,158,0.0,0.0,69,0.00,,---,0.00,VWS V14.01,2013-02-24 10:27:00,
2013-02-24 04:32:00,27.5,18.3,29.91,SSE,158,3.6,3.6,68,0.00,,---,0.00,VWS V14.01,2013-02-24 10:32:00,
2013-02-24 04:37:00,27.3,18.5,29.91,SSE,158,0.0,3.6,69,0.00,,---,0.00,VWS V14.01,2013-02-24 10:37:00,
2013-02-24 04:42:00,27.5,19.0,29.91,SE,135,0.0,4.0,70,0.00,,---,0.00,VWS V14.01,2013-02-24 10:42:00,
2013-02-24 04:47:00,27.5,19.0,29.91,SE,135,2.9,2.9,70,0.00,,---,0.00,VWS V14.01,2013-02-24 10:47:00,
2013-02-24 04:52:00,27.3,18.5,29.91,SE,135,0.0,0.0,69,0.00,,---,0.00,VWS V14.01,2013-02-24 10:52:00,
2013-02-24 04:57:00,27.1,18.3,29.88,SE,135,0.0,0.0,69,0.00,,---,0.00,VWS V14.01,2013-02-24 10:57:00,
2013-02-24 05:02:00,27.1,18.3,29.88,SSE,158,1.6,3.1,69,0.00,,---,0.00,VWS V14.01,2013-02-24 11:02:00,
2013-02-24 05:07:00,27.1,18.7,29.88,SE,135,0.0,2.9,70,0.00,,---,0.00,VWS V14.01,2013-02-24 11:07:00,
2013-02-24 05:12:00,27.1,18.7,29.91,SE,135,0.0,0.0,70,0.00,,---,0.00,VWS V14.01,2013-02-24 11:12:00,
2013-02-24 05:17:00,27.0,18.5,29.91,SE,135,3.6,3.8,70,0.00,,---,0.00,VWS V14.01,2013-02-24 11:17:00,
2013-02-24 05:22:00,27.0,18.5,29.91,SSE,158,0.0,2.2,70,0.00,,---,0.00,VWS V14.01,2013-02-24 11:22:00,
2013-02-24 05:27:00,27.0,18.5,29.91,SE,135,2.5,2.5,70,0.00,,---,0.00,VWS V14.01,2013-02-24 11:27:00,
2013-02-24 05:32:00,26.8,18.6,29.91,SE,135,0.0,0.0,71,0.00,,---,0.00,VWS V14.01,2013-02-24 11:32:00,
2013-02-24 05:37:00,26.8,18.6,29.91,SE,135,3.6,4.3,71,0.00,,---,0.00,VWS V14.01,2013-02-24 11:37:00,
2013-02-24 05:42:00,26.8,18.6,29.91,ESE,112,0.0,0.0,71,0.00,,---,0.00,VWS V14.01,2013-02-24 11:42:00,
2013-02-24 05:47:00,26.6,18.5,29.91,ESE,112,4.0,4.0,71,0.00,,---,0.00,VWS V14.01,2013-02-24 11:47:00,
2013-02-24 05:52:00,26.6,18.5,29.91,SE,135,3.6,4.3,71,0.00,,---,0.00,VWS V14.01,2013-02-24 11:52:00,
2013-02-24 05:57:00,26.8,18.6,29.91,ESE,112,3.6,5.6,71,0.00,,---,0.00,VWS V14.01,2013-02-24 11:57:00,
2013-02-24 06:02:00,26.6,18.5,29.91,ESE,112,4.0,4.0,71,0.00,,---,0.00,VWS V14.01,2013-02-24 12:02:00,
2013-02-24 06:07:00,26.6,18.5,29.91,ESE,112,3.4,3.6,71,0.00,,---,0.00,VWS V14.01,2013-02-24 12:07:00,
2013-02-24 06:12:00,26.4,18.3,29.91,SE,135,3.4,4.0,71,0.00,,---,0.00,VWS V14.01,2013-02-24 12:12:00,
2013-02-24 06:17:00,26.4,18.6,29.91,SE,135,4.0,4.5,72,0.00,,---,0.00,VWS V14.01,2013-02-24 12:17:00,
2013-02-24 06:22:00,26.2,18.5,29.91,SE,135,3.1,4.9,72,0.00,,---,0.00,VWS V14.01,2013-02-24 12:22:00,
2013-02-24 06:27:00,26.1,18.3,29.91,ESE,112,0.0,0.0,72,0.00,,---,0.00,VWS V14.01,2013-02-24 12:27:00,
2013-02-24 06:32:00,25.9,18.1,29.91,East,90,3.1,4.0,72,0.00,,---,0.00,VWS V14.01,2013-02-24 12:32:00,
2013-02-24 06:37:00,25.7,18.3,29.91,ESE,112,4.3,4.3,73,0.00,,---,0.00,VWS V14.01,2013-02-24 12:37:00,
2013-02-24 06:43:00,25.7,18.3,29.91,SE,135,0.0,0.0,73,0.00,,---,0.00,VWS V14.01,2013-02-24 12:43:00,
2013-02-24 06:48:00,25.7,18.3,29.91,ESE,112,4.0,5.4,73,0.00,,---,0.00,VWS V14.01,2013-02-24 12:48:00,
2013-02-24 06:53:00,25.9,18.4,29.91,SE,135,4.3,5.4,73,0.00,,---,0.00,VWS V14.01,2013-02-24 12:53:00,
2013-02-24 06:58:00,25.9,18.4,29.91,ESE,112,0.0,5.4,73,0.00,,---,0.00,VWS V14.01,2013-02-24 12:58:00,
2013-02-24 07:03:00,25.9,18.8,29.91,SE,135,3.6,5.4,74,0.00,,---,0.00,VWS V14.01,2013-02-24 13:03:00,
2013-02-24 07:08:00,26.1,18.9,29.91,ESE,112,3.8,5.6,74,0.00,,---,0.00,VWS V14.01,2013-02-24 13:08:00,
2013-02-24 07:13:00,26.1,18.6,29.91,ESE,112,3.4,5.8,73,0.00,,---,0.00,VWS V14.01,2013-02-24 13:13:00,
2013-02-24 07:18:00,26.6,19.1,29.91,ESE,112,7.4,7.4,73,0.00,,---,0.00,VWS V14.01,2013-02-24 13:18:00,
2013-02-24 07:23:00,27.3,19.2,29.91,SE,135,4.0,6.3,71,0.00,,---,0.00,VWS V14.01,2013-02-24 13:23:00,
2013-02-24 07:29:00,28.0,19.2,29.91,SSE,158,4.3,6.5,69,0.00,,---,0.00,VWS V14.01,2013-02-24 13:29:00,
2013-02-24 07:34:00,28.6,19.0,29.91,SE,135,5.6,8.7,67,0.00,,---,0.00,VWS V14.01,2013-02-24 13:34:00,
2013-02-24 07:39:00,29.5,19.5,29.91,SE,135,5.8,5.8,66,0.00,,---,0.00,VWS V14.01,2013-02-24 13:39:00,
2013-02-24 07:45:00,30.2,19.5,29.94,SE,135,7.4,7.4,64,0.00,,---,0.00,VWS V14.01,2013-02-24 13:45:00,
2013-02-24 07:50:00,30.7,19.3,29.94,ESE,112,4.3,5.8,62,0.00,,---,0.00,VWS V14.01,2013-02-24 13:50:00,
2013-02-24 07:55:00,31.6,19.8,29.94,SE,135,5.4,5.4,61,0.00,,---,0.00,VWS V14.01,2013-02-24 13:55:00,
2013-02-24 08:01:00,32.2,19.5,29.97,SE,135,6.3,6.3,59,0.00,,---,0.00,VWS V14.01,2013-02-24 14:01:00,
2013-02-24 08:07:00,32.9,19.8,29.97,SE,135,6.0,6.5,58,0.00,,---,0.00,VWS V14.01,2013-02-24 14:07:00,
2013-02-24 08:12:00,33.4,19.9,29.94,SSE,158,3.6,4.3,57,0.00,,---,0.00,VWS V14.01,2013-02-24 14:12:00,
2013-02-24 08:17:00,34.0,20.0,29.94,ESE,112,5.4,6.5,56,0.00,,---,0.00,VWS V14.01,2013-02-24 14:17:00,
2013-02-24 08:23:00,34.5,20.0,29.94,SE,135,5.4,5.8,55,0.00,,---,0.00,VWS V14.01,2013-02-24 14:23:00,
2013-02-24 08:28:00,35.1,20.5,29.94,SE,135,5.8,5.8,55,0.00,,---,0.00,VWS V14.01,2013-02-24 14:28:00,
2013-02-24 08:34:00,35.6,20.2,29.94,East,90,5.6,6.3,53,0.00,,---,0.00,VWS V14.01,2013-02-24 14:34:00,
2013-02-24 08:40:00,36.1,20.7,29.94,SE,135,7.8,9.2,53,0.00,,---,0.00,VWS V14.01,2013-02-24 14:40:00,
2013-02-24 08:46:00,36.3,20.4,29.97,SSE,158,3.8,10.7,52,0.00,,---,0.00,VWS V14.01,2013-02-24 14:46:00,
2013-02-24 08:51:00,36.7,20.7,29.97,SE,135,5.8,7.2,52,0.00,,---,0.00,VWS V14.01,2013-02-24 14:51:00,
2013-02-24 08:56:00,36.5,20.6,29.97,SE,135,5.4,13.9,52,0.00,,---,0.00,VWS V14.01,2013-02-24 14:56:00,
2013-02-24 09:01:00,36.9,20.9,29.94,SSE,158,7.2,8.7,52,0.00,,---,0.00,VWS V14.01,2013-02-24 15:01:00,
2013-02-24 09:06:00,37.2,20.8,29.94,SSE,158,7.4,13.0,51,0.00,,---,0.00,VWS V14.01,2013-02-24 15:06:00,
2013-02-24 09:12:00,38.1,21.6,29.94,SE,135,5.6,8.1,51,0.00,,---,0.00,VWS V14.01,2013-02-24 15:12:00,
2013-02-24 09:17:00,38.8,22.3,29.94,ESE,112,5.4,8.5,51,0.00,,---,0.00,VWS V14.01,2013-02-24 15:17:00,
2013-02-24 09:22:00,39.4,22.3,29.94,SE,135,7.8,8.1,50,0.00,,---,0.00,VWS V14.01,2013-02-24 15:22:00,
2013-02-24 09:28:00,39.6,22.5,29.91,SE,135,12.3,12.3,50,0.00,,---,0.00,VWS V14.01,2013-02-24 15:28:00,
2013-02-24 09:34:00,40.5,23.3,29.91,ESE,112,8.1,9.2,50,0.00,,---,0.00,VWS V14.01,2013-02-24 15:34:00,
2013-02-24 09:39:00,41.2,23.5,29.91,South,180,4.3,6.9,49,0.00,,---,0.00,VWS V14.01,2013-02-24 15:39:00,
2013-02-24 09:44:00,41.5,23.8,29.94,SSE,158,7.8,11.2,49,0.00,,---,0.00,VWS V14.01,2013-02-24 15:44:00,
2013-02-24 09:49:00,41.7,23.5,29.94,South,180,6.3,10.3,48,0.00,,---,0.00,VWS V14.01,2013-02-24 15:49:00,
2013-02-24 09:54:00,41.5,23.3,29.94,SE,135,6.5,8.5,48,0.00,,---,0.00,VWS V14.01,2013-02-24 15:54:00,
2013-02-24 09:59:00,42.1,23.8,29.91,SE,135,5.8,7.2,48,0.00,,---,0.00,VWS V14.01,2013-02-24 15:59:00,
2013-02-24 10:04:00,42.1,23.8,29.91,SSE,158,6.5,12.1,48,0.00,,---,0.00,VWS V14.01,2013-02-24 16:04:00,
2013-02-24 10:09:00,43.0,24.6,29.91,South,180,8.5,9.6,48,0.00,,---,0.00,VWS V14.01,2013-02-24 16:09:00,
2013-02-24 10:14:00,43.2,24.3,29.91,ESE,112,4.3,10.1,47,0.00,,---,0.00,VWS V14.01,2013-02-24 16:14:00,
2013-02-24 10:19:00,44.1,25.6,29.91,South,180,4.9,5.6,48,0.00,,---,0.00,VWS V14.01,2013-02-24 16:19:00,
2013-02-24 10:24:00,43.9,24.5,29.91,SE,135,9.0,12.8,46,0.00,,---,0.00,VWS V14.01,2013-02-24 16:24:00,
2013-02-24 10:31:00,44.2,25.3,29.91,SE,135,6.3,6.5,47,0.00,,---,0.00,VWS V14.01,2013-02-24 16:31:00,
2013-02-24 10:36:00,45.3,25.8,29.91,SSW,202,5.6,7.6,46,0.00,,---,0.00,VWS V14.01,2013-02-24 16:36:00,
2013-02-24 10:41:00,45.3,25.8,29.91,SE,135,1.1,3.4,46,0.00,,---,0.00,VWS V14.01,2013-02-24 16:41:00,
2013-02-24 10:46:00,45.3,25.8,29.91,SSE,158,3.8,8.5,46,0.00,,---,0.00,VWS V14.01,2013-02-24 16:46:00,
2013-02-24 10:51:00,46.4,25.7,29.91,SSE,158,10.7,10.7,44,0.00,,---,0.00,VWS V14.01,2013-02-24 16:51:00,
2013-02-24 10:56:00,46.6,25.9,29.91,SE,135,7.6,8.5,44,0.00,,---,0.00,VWS V14.01,2013-02-24 16:56:00,
2013-02-24 11:01:00,46.9,26.2,29.91,SSE,158,10.3,10.3,44,0.00,,---,0.00,VWS V14.01,2013-02-24 17:01:00,
2013-02-24 11:06:00,46.9,26.2,29.91,SSE,158,3.8,9.8,44,0.00,,---,0.00,VWS V14.01,2013-02-24 17:06:00,
2013-02-24 11:11:00,46.9,26.2,29.91,SE,135,10.7,14.3,44,0.00,,---,0.00,VWS V14.01,2013-02-24 17:11:00,
2013-02-24 11:16:00,46.2,26.1,29.91,SE,135,12.1,14.5,45,0.00,,---,0.00,VWS V14.01,2013-02-24 17:16:00,
2013-02-24 11:21:00,46.6,26.4,29.91,SSE,158,8.1,10.1,45,0.00,,---,0.00,VWS V14.01,2013-02-24 17:21:00,
2013-02-24 11:26:00,46.8,26.6,29.91,SE,135,8.5,14.8,45,0.00,,---,0.00,VWS V14.01,2013-02-24 17:26:00,
2013-02-24 11:31:00,47.5,27.2,29.91,SE,135,9.2,9.2,45,0.00,,---,0.00,VWS V14.01,2013-02-24 17:31:00,
2013-02-24 11:36:00,47.3,27.0,29.91,SE,135,6.0,7.6,45,0.00,,---,0.00,VWS V14.01,2013-02-24 17:36:00,
2013-02-24 11:41:00,47.3,26.5,29.91,SSE,158,10.5,11.0,44,0.00,,---,0.00,VWS V14.01,2013-02-24 17:41:00,
2013-02-24 11:46:00,47.5,27.2,29.91,SE,135,3.4,5.6,45,0.00,,---,0.00,VWS V14.01,2013-02-24 17:46:00,
2013-02-24 11:51:00,47.1,26.9,29.91,South,180,8.1,15.2,45,0.00,,---,0.00,VWS V14.01,2013-02-24 17:51:00,
2013-02-24 11:56:00,46.9,26.7,29.91,SE,135,12.5,13.2,45,0.00,,---,0.00,VWS V14.01,2013-02-24 17:56:00,
2013-02-24 12:01:00,46.9,27.3,29.88,SE,135,8.1,13.2,46,0.00,,---,0.00,VWS V14.01,2013-02-24 18:01:00,
2013-02-24 12:06:00,46.9,27.3,29.88,SE,135,11.0,14.5,46,0.00,,---,0.00,VWS V14.01,2013-02-24 18:06:00,
2013-02-24 12:11:00,47.5,27.8,29.88,SSE,158,7.6,10.7,46,0.00,,---,0.00,VWS V14.01,2013-02-24 18:11:00,
2013-02-24 12:16:00,48.0,27.7,29.88,ESE,112,7.2,10.5,45,0.00,,---,0.00,VWS V14.01,2013-02-24 18:16:00,
2013-02-24 12:21:00,47.7,27.4,29.88,SE,135,7.6,14.1,45,0.00,,---,0.00,VWS V14.01,2013-02-24 18:21:00,
2013-02-24 12:26:00,47.8,27.5,29.88,East,90,8.5,10.7,45,0.00,,---,0.00,VWS V14.01,2013-02-24 18:26:00,
2013-02-24 12:31:00,48.4,28.0,29.88,ENE,68,11.0,12.1,45,0.00,,---,0.00,VWS V14.01,2013-02-24 18:31:00,
2013-02-24 12:36:00,48.9,28.5,29.88,South,180,8.5,9.6,45,0.00,,---,0.00,VWS V14.01,2013-02-24 18:36:00,
2013-02-24 12:41:00,49.1,28.1,29.88,SSE,158,15.2,15.2,44,0.00,,---,0.00,VWS V14.01,2013-02-24 18:41:00,
2013-02-24 12:46:00,48.6,27.6,29.85,SE,135,11.0,12.5,44,0.00,,---,0.00,VWS V14.01,2013-02-24 18:46:00,
2013-02-24 12:51:00,47.8,27.5,29.85,SE,135,7.2,12.5,45,0.00,,---,0.00,VWS V14.01,2013-02-24 18:51:00,
2013-02-24 12:56:00,48.0,27.7,29.85,ESE,112,5.4,7.8,45,0.00,,---,0.00,VWS V14.01,2013-02-24 18:56:00,
2013-02-24 13:01:00,48.9,28.5,29.88,SE,135,11.9,11.9,45,0.00,,---,0.00,VWS V14.01,2013-02-24 19:01:00,
2013-02-24 13:06:00,49.6,29.2,29.88,ESE,112,6.0,7.6,45,0.00,,---,0.00,VWS V14.01,2013-02-24 19:06:00,
2013-02-24 13:11:00,48.6,28.2,29.88,SE,135,6.3,12.3,45,0.00,,---,0.00,VWS V14.01,2013-02-24 19:11:00,
2013-02-24 13:16:00,48.7,28.4,29.88,ESE,112,6.3,11.0,45,0.00,,---,0.00,VWS V14.01,2013-02-24 19:16:00,
2013-02-24 13:21:00,48.6,28.7,29.88,South,180,12.5,12.5,46,0.00,,---,0.00,VWS V14.01,2013-02-24 19:21:00,
2013-02-24 13:26:00,48.2,28.4,29.88,ESE,112,5.8,12.8,46,0.00,,---,0.00,VWS V14.01,2013-02-24 19:26:00,
2013-02-24 13:31:00,48.7,28.9,29.85,SE,135,4.0,7.8,46,0.00,,---,0.00,VWS V14.01,2013-02-24 19:31:00,
2013-02-24 13:36:00,48.7,28.9,29.85,SE,135,6.5,10.1,46,0.00,,---,0.00,VWS V14.01,2013-02-24 19:36:00,
2013-02-24 13:42:00,49.1,29.2,29.85,SSE,158,5.6,9.8,46,0.00,,---,0.00,VWS V14.01,2013-02-24 19:42:00,
2013-02-24 13:47:00,48.6,28.7,29.85,SSE,158,8.1,14.5,46,0.00,,---,0.00,VWS V14.01,2013-02-24 19:47:00,
2013-02-24 13:52:00,48.6,28.7,29.85,ESE,112,13.2,15.4,46,0.00,,---,0.00,VWS V14.01,2013-02-24 19:52:00,
2013-02-24 13:57:00,48.4,29.1,29.85,SSE,158,10.7,10.7,47,0.00,,---,0.00,VWS V14.01,2013-02-24 19:57:00,
2013-02-24 14:02:00,49.3,29.9,29.85,SE,135,8.1,8.1,47,0.00,,---,0.00,VWS V14.01,2013-02-24 20:02:00,
2013-02-24 14:07:00,48.7,29.4,29.85,ESE,112,4.3,13.0,47,0.00,,---,0.00,VWS V14.01,2013-02-24 20:07:00,
2013-02-24 14:13:00,49.8,30.4,29.82,SE,135,7.4,9.4,47,0.00,,---,0.00,VWS V14.01,2013-02-24 20:13:00,
2013-02-24 14:18:00,50.2,30.2,29.82,SE,135,12.3,12.3,46,0.00,,---,0.00,VWS V14.01,2013-02-24 20:18:00,
2013-02-24 14:23:00,50.5,30.5,29.82,SE,135,13.2,13.2,46,0.00,,---,0.00,VWS V14.01,2013-02-24 20:23:00,
2013-02-24 14:28:00,50.2,30.2,29.85,SSE,158,4.9,8.7,46,0.00,,---,0.00,VWS V14.01,2013-02-24 20:28:00,
2013-02-24 14:33:00,49.8,29.9,29.85,SE,135,13.2,13.2,46,0.00,,---,0.00,VWS V14.01,2013-02-24 20:33:00,
2013-02-24 14:38:00,49.8,29.9,29.85,ESE,112,10.3,10.3,46,0.00,,---,0.00,VWS V14.01,2013-02-24 20:38:00,
2013-02-24 14:43:00,50.2,30.2,29.85,SE,135,10.5,10.5,46,0.00,,---,0.00,VWS V14.01,2013-02-24 20:43:00,
2013-02-24 14:48:00,50.5,30.0,29.85,South,180,13.2,13.2,45,0.00,,---,0.00,VWS V14.01,2013-02-24 20:48:00,
2013-02-24 14:53:00,50.2,29.7,29.85,ESE,112,8.5,14.1,45,0.00,,---,0.00,VWS V14.01,2013-02-24 20:53:00,
2013-02-24 14:58:00,50.0,29.5,29.85,East,90,6.5,13.0,45,0.00,,---,0.00,VWS V14.01,2013-02-24 20:58:00,
2013-02-24 15:03:00,49.8,29.9,29.85,SE,135,8.7,11.0,46,0.00,,---,0.00,VWS V14.01,2013-02-24 21:03:00,
2013-02-24 15:08:00,50.2,30.2,29.85,ESE,112,5.4,12.1,46,0.00,,---,0.00,VWS V14.01,2013-02-24 21:08:00,
2013-02-24 15:13:00,49.8,29.9,29.85,ESE,112,5.6,12.5,46,0.00,,---,0.00,VWS V14.01,2013-02-24 21:13:00,
2013-02-24 15:18:00,49.8,29.9,29.85,ESE,112,13.4,14.5,46,0.00,,---,0.00,VWS V14.01,2013-02-24 21:18:00,
2013-02-24 15:23:00,49.5,30.1,29.85,ESE,112,6.3,8.1,47,0.00,,---,0.00,VWS V14.01,2013-02-24 21:23:00,
2013-02-24 15:28:00,49.8,30.4,29.85,East,90,10.7,14.8,47,0.00,,---,0.00,VWS V14.01,2013-02-24 21:28:00,
2013-02-24 15:33:00,50.2,30.2,29.85,East,90,5.6,7.4,46,0.00,,---,0.00,VWS V14.01,2013-02-24 21:33:00,
2013-02-24 15:38:00,50.2,30.2,29.85,ESE,112,4.9,10.5,46,0.00,,---,0.00,VWS V14.01,2013-02-24 21:38:00,
2013-02-24 15:43:00,50.2,30.2,29.85,SE,135,9.8,9.8,46,0.00,,---,0.00,VWS V14.01,2013-02-24 21:43:00,
2013-02-24 15:48:00,50.5,30.5,29.85,ENE,68,5.8,7.8,46,0.00,,---,0.00,VWS V14.01,2013-02-24 21:48:00,
2013-02-24 15:53:00,50.9,30.9,29.85,SE,135,6.0,6.3,46,0.00,,---,0.00,VWS V14.01,2013-02-24 21:53:00,
2013-02-24 15:58:00,50.5,30.5,29.85,East,90,5.6,10.3,46,0.00,,---,0.00,VWS V14.01,2013-02-24 21:58:00,
2013-02-24 16:03:00,50.5,30.5,29.85,ENE,68,7.6,7.6,46,0.00,,---,0.00,VWS V14.01,2013-02-24 22:03:00,
2013-02-24 16:08:00,50.4,30.4,29.85,East,90,5.8,5.8,46,0.00,,---,0.00,VWS V14.01,2013-02-24 22:08:00,
2013-02-24 16:13:00,49.6,30.2,29.82,East,90,10.3,12.5,47,0.00,,---,0.00,VWS V14.01,2013-02-24 22:13:00,
2013-02-24 16:18:00,50.2,30.2,29.82,ENE,68,3.4,9.2,46,0.00,,---,0.00,VWS V14.01,2013-02-24 22:18:00,
2013-02-24 16:23:00,49.8,30.4,29.82,ENE,68,2.9,5.4,47,0.00,,---,0.00,VWS V14.01,2013-02-24 22:23:00,
2013-02-24 16:28:00,49.5,30.1,29.82,ENE,68,2.9,6.3,47,0.00,,---,0.00,VWS V14.01,2013-02-24 22:28:00,
2013-02-24 16:33:00,48.7,29.4,29.82,ENE,68,5.4,7.8,47,0.00,,---,0.00,VWS V14.01,2013-02-24 22:33:00,
2013-02-24 16:38:00,48.4,29.1,29.82,ENE,68,7.2,11.4,47,0.00,,---,0.00,VWS V14.01,2013-02-24 22:38:00,
2013-02-24 16:43:00,48.0,29.3,29.82,ENE,68,3.4,8.5,48,0.00,,---,0.00,VWS V14.01,2013-02-24 22:43:00,
2013-02-24 16:48:00,47.8,29.1,29.82,East,90,10.5,10.5,48,0.00,,---,0.00,VWS V14.01,2013-02-24 22:48:00,
2013-02-24 16:53:00,47.7,29.0,29.82,ENE,68,3.1,7.8,48,0.00,,---,0.00,VWS V14.01,2013-02-24 22:53:00,
2013-02-24 16:58:00,47.5,29.3,29.82,ENE,68,6.5,7.8,49,0.00,,---,0.00,VWS V14.01,2013-02-24 22:58:00,
2013-02-24 17:03:00,47.3,29.1,29.82,East,90,8.5,9.8,49,0.00,,---,0.00,VWS V14.01,2013-02-24 23:03:00,
2013-02-24 17:08:00,46.8,28.6,29.82,NE,45,5.6,7.8,49,0.00,,---,0.00,VWS V14.01,2013-02-24 23:08:00,
2013-02-24 17:13:00,46.0,28.5,29.82,East,90,5.6,8.1,50,0.00,,---,0.00,VWS V14.01,2013-02-24 23:13:00,
2013-02-24 17:18:00,45.5,28.0,29.82,ENE,68,10.1,10.1,50,0.00,,---,0.00,VWS V14.01,2013-02-24 23:18:00,
2013-02-24 17:23:00,45.0,27.9,29.82,NE,45,4.7,6.3,51,0.00,,---,0.00,VWS V14.01,2013-02-24 23:23:00,
2013-02-24 17:28:00,44.4,27.9,29.82,ENE,68,5.4,7.8,52,0.00,,---,0.00,VWS V14.01,2013-02-24 23:28:00,
2013-02-24 17:33:00,43.5,28.0,29.82,NE,45,7.6,7.6,54,0.00,,---,0.00,VWS V14.01,2013-02-24 23:33:00,
2013-02-24 17:38:00,42.8,28.2,29.82,ENE,68,10.1,10.1,56,0.00,,---,0.00,VWS V14.01,2013-02-24 23:38:00,
2013-02-24 17:43:00,42.1,28.4,29.85,ENE,68,6.0,10.3,58,0.00,,---,0.00,VWS V14.01,2013-02-24 23:43:00,
2013-02-24 17:48:00,41.5,28.7,29.85,NE,45,6.3,8.5,60,0.00,,---,0.00,VWS V14.01,2013-02-24 23:48:00,
2013-02-24 17:53:00,41.2,28.8,29.85,ENE,68,8.5,8.5,61,0.00,,---,0.00,VWS V14.01,2013-02-24 23:53:00,
2013-02-24 17:58:00,40.6,29.0,29.85,ENE,68,3.8,4.9,63,0.00,,---,0.00,VWS V14.01,2013-02-24 23:58:00,
2013-02-24 18:03:00,40.5,29.3,29.85,ENE,68,6.5,6.5,64,0.00,,---,0.00,VWS V14.01,2013-02-25 00:03:00,
2013-02-24 18:08:00,39.9,29.1,29.85,NE,45,7.4,7.4,65,0.00,,---,0.00,VWS V14.01,2013-02-25 00:08:00,
2013-02-24 18:13:00,39.7,29.3,29.82,ENE,68,4.7,6.5,66,0.00,,---,0.00,VWS V14.01,2013-02-25 00:13:00,
2013-02-24 18:18:00,39.4,29.4,29.82,ENE,68,8.7,8.7,67,0.00,,---,0.00,VWS V14.01,2013-02-25 00:18:00,
2013-02-24 18:23:00,39.4,29.7,29.82,ENE,68,7.6,7.6,68,0.00,,---,0.00,VWS V14.01,2013-02-25 00:23:00,
2013-02-24 18:28:00,39.2,29.5,29.82,ENE,68,6.5,6.5,68,0.00,,---,0.00,VWS V14.01,2013-02-25 00:28:00,
2013-02-24 18:33:00,39.2,29.9,29.82,ENE,68,3.4,4.3,69,0.00,,---,0.00,VWS V14.01,2013-02-25 00:33:00,
2013-02-24 18:38:00,39.0,30.1,29.82,ENE,68,0.0,1.1,70,0.00,,---,0.00,VWS V14.01,2013-02-25 00:38:00,
2013-02-24 18:43:00,39.0,30.1,29.85,ENE,68,0.0,6.7,70,0.00,,---,0.00,VWS V14.01,2013-02-25 00:43:00,
2013-02-24 18:48:00,39.0,30.1,29.85,ENE,68,0.0,0.0,70,0.00,,---,0.00,VWS V14.01,2013-02-25 00:48:00,
2013-02-24 18:53:00,39.0,30.1,29.85,NE,45,6.5,7.4,70,0.00,,---,0.00,VWS V14.01,2013-02-25 00:53:00,
2013-02-24 18:58:00,38.8,30.3,29.85,ENE,68,6.0,6.5,71,0.00,,---,0.00,VWS V14.01,2013-02-25 00:58:00,
2013-02-24 19:03:00,38.8,30.3,29.85,East,90,6.9,9.8,71,0.00,,---,0.00,VWS V14.01,2013-02-25 01:03:00,
2013-02-24 19:08:00,38.8,30.3,29.85,ENE,68,8.1,8.1,71,0.00,,---,0.00,VWS V14.01,2013-02-25 01:08:00,
2013-02-24 19:13:00,38.7,30.1,29.88,East,90,8.5,10.3,71,0.00,,---,0.00,VWS V14.01,2013-02-25 01:13:00,
2013-02-24 19:18:00,38.7,30.1,29.88,ENE,68,10.1,10.1,71,0.00,,---,0.00,VWS V14.01,2013-02-25 01:18:00,
2013-02-24 19:23:00,38.8,30.3,29.88,NE,45,0.0,9.6,71,0.00,,---,0.00,VWS V14.01,2013-02-25 01:23:00,
2013-02-24 19:28:00,38.7,30.1,29.88,ENE,68,11.0,11.0,71,0.00,,---,0.00,VWS V14.01,2013-02-25 01:28:00,
2013-02-24 19:33:00,38.8,30.3,29.88,East,90,4.9,6.3,71,0.00,,---,0.00,VWS V14.01,2013-02-25 01:33:00,
2013-02-24 19:38:00,38.7,30.1,29.88,East,90,5.8,7.4,71,0.00,,---,0.00,VWS V14.01,2013-02-25 01:38:00,
2013-02-24 19:43:00,38.7,30.1,29.88,ESE,112,7.6,8.1,71,0.00,,---,0.00,VWS V14.01,2013-02-25 01:43:00,
2013-02-24 19:48:00,38.7,30.1,29.88,East,90,0.0,6.0,71,0.00,,---,0.00,VWS V14.01,2013-02-25 01:48:00,
2013-02-24 19:53:00,38.7,30.4,29.88,East,90,7.8,7.8,72,0.00,,---,0.00,VWS V14.01,2013-02-25 01:53:00,
2013-02-24 19:58:00,38.7,30.4,29.88,ENE,68,9.2,9.2,72,0.00,,---,0.00,VWS V14.01,2013-02-25 01:58:00,
2013-02-24 20:03:00,38.7,30.4,29.88,East,90,6.5,6.5,72,0.00,,---,0.00,VWS V14.01,2013-02-25 02:03:00,
2013-02-24 20:08:00,38.7,30.4,29.88,ESE,112,4.0,4.0,72,0.00,,---,0.00,VWS V14.01,2013-02-25 02:08:00,
2013-02-24 20:12:00,38.7,30.4,29.88,East,90,6.5,10.7,72,0.00,,---,0.00,VWS V14.01,2013-02-25 02:12:00,
2013-02-24 20:17:00,38.8,30.6,29.88,East,90,5.4,5.6,72,0.00,,---,0.00,VWS V14.01,2013-02-25 02:17:00,
2013-02-24 20:22:00,38.8,30.6,29.88,East,90,3.1,6.5,72,0.00,,---,0.00,VWS V14.01,2013-02-25 02:22:00,
2013-02-24 20:28:00,38.8,30.6,29.88,East,90,6.0,10.7,72,0.00,,---,0.00,VWS V14.01,2013-02-25 02:28:00,
2013-02-24 20:32:00,39.0,30.4,29.88,East,90,10.7,10.7,71,0.00,,---,0.00,VWS V14.01,2013-02-25 02:32:00,
2013-02-24 20:37:00,38.8,30.3,29.88,ENE,68,2.7,8.7,71,0.00,,---,0.00,VWS V14.01,2013-02-25 02:37:00,
2013-02-24 20:42:00,39.0,30.4,29.88,ENE,68,1.6,6.0,71,0.00,,---,0.00,VWS V14.01,2013-02-25 02:42:00,
2013-02-24 20:47:00,39.0,30.4,29.88,East,90,12.5,12.5,71,0.00,,---,0.00,VWS V14.01,2013-02-25 02:47:00,
2013-02-24 20:52:00,39.2,30.6,29.88,ESE,112,5.6,6.7,71,0.00,,---,0.00,VWS V14.01,2013-02-25 02:52:00,
2013-02-24 20:57:00,39.4,30.4,29.88,East,90,9.6,9.6,70,0.00,,---,0.00,VWS V14.01,2013-02-25 02:57:00,
2013-02-24 21:03:00,39.6,30.6,29.88,ENE,68,6.0,7.8,70,0.00,,---,0.00,VWS V14.01,2013-02-25 03:03:00,
2013-02-24 21:07:00,39.7,30.8,29.88,ENE,68,8.7,8.7,70,0.00,,---,0.00,VWS V14.01,2013-02-25 03:07:00,
2013-02-24 21:12:00,39.7,30.4,29.88,ENE,68,7.8,7.8,69,0.00,,---,0.00,VWS V14.01,2013-02-25 03:12:00,
2013-02-24 21:17:00,39.9,30.6,29.88,East,90,6.5,8.5,69,0.00,,---,0.00,VWS V14.01,2013-02-25 03:17:00,
2013-02-24 21:22:00,39.9,30.2,29.88,East,90,7.2,8.5,68,0.00,,---,0.00,VWS V14.01,2013-02-25 03:22:00,
2013-02-24 21:27:00,40.1,30.4,29.88,East,90,7.4,8.1,68,0.00,,---,0.00,VWS V14.01,2013-02-25 03:27:00,
2013-02-24 21:32:00,40.1,30.4,29.88,East,90,8.1,8.5,68,0.00,,---,0.00,VWS V14.01,2013-02-25 03:32:00,
2013-02-24 21:37:00,39.9,30.2,29.88,East,90,6.3,8.1,68,0.00,,---,0.00,VWS V14.01,2013-02-25 03:37:00,
2013-02-24 21:42:00,39.9,30.2,29.88,East,90,3.1,4.9,68,0.00,,---,0.00,VWS V14.01,2013-02-25 03:42:00,
2013-02-24 21:48:00,39.9,30.2,29.88,East,90,10.5,10.5,68,0.00,,---,0.00,VWS V14.01,2013-02-25 03:48:00,
2013-02-24 21:53:00,39.9,30.2,29.88,East,90,4.9,5.6,68,0.00,,---,0.00,VWS V14.01,2013-02-25 03:53:00,
2013-02-24 21:57:00,39.9,30.2,29.91,ENE,68,3.1,5.8,68,0.00,,---,0.00,VWS V14.01,2013-02-25 03:57:00,
2013-02-24 22:02:00,39.7,30.1,29.91,NE,45,0.0,4.3,68,0.00,,---,0.00,VWS V14.01,2013-02-25 04:02:00,
2013-02-24 22:08:00,39.7,30.1,29.91,NE,45,0.0,4.0,68,0.00,,---,0.00,VWS V14.01,2013-02-25 04:08:00,
2013-02-24 22:13:00,39.7,30.1,29.88,NE,45,0.0,3.8,68,0.00,,---,0.00,VWS V14.01,2013-02-25 04:13:00,
2013-02-24 22:18:00,39.7,30.4,29.88,NE,45,4.0,4.9,69,0.00,,---,0.00,VWS V14.01,2013-02-25 04:18:00,
2013-02-24 22:23:00,39.6,30.2,29.88,ENE,68,0.0,5.8,69,0.00,,---,0.00,VWS V14.01,2013-02-25 04:23:00,
2013-02-24 22:28:00,39.4,30.1,29.88,ENE,68,2.9,5.4,69,0.00,,---,0.00,VWS V14.01,2013-02-25 04:28:00,
2013-02-24 22:34:00,39.4,30.1,29.88,NNE,22,3.6,4.9,69,0.00,,---,0.00,VWS V14.01,2013-02-25 04:34:00,
2013-02-24 22:38:00,39.2,30.2,29.88,North,0,4.9,6.3,70,0.00,,---,0.00,VWS V14.01,2013-02-25 04:38:00,
2013-02-24 22:43:00,39.2,30.2,29.91,North,0,0.0,2.5,70,0.00,,---,0.00,VWS V14.01,2013-02-25 04:43:00,
2013-02-24 22:49:00,38.8,29.9,29.91,NE,45,3.8,5.4,70,0.00,,---,0.00,VWS V14.01,2013-02-25 04:49:00,
2013-02-24 22:55:00,38.8,30.3,29.91,NNE,22,0.0,6.3,71,0.00,,---,0.00,VWS V14.01,2013-02-25 04:55:00,
2013-02-24 23:00:00,38.7,30.1,29.91,NNW,338,0.0,0.0,71,0.00,,---,0.00,VWS V14.01,2013-02-25 05:00:00,
2013-02-24 23:01:00,38.7,30.1,29.91,NE,45,0.0,0.0,71,0.00,,---,0.00,VWS V14.01,2013-02-25 05:01:00,
2013-02-24 23:02:00,38.5,29.9,29.91,NE,45,2.0,4.0,71,0.00,,---,0.00,VWS V14.01,2013-02-25 05:02:00,
2013-02-24 23:06:00,38.3,29.7,29.91,North,0,0.0,0.0,71,0.00,,---,0.00,VWS V14.01,2013-02-25 05:06:00,
2013-02-24 23:09:00,38.3,30.1,29.91,North,0,3.6,6.3,72,0.00,,---,0.00,VWS V14.01,2013-02-25 05:09:00,
2013-02-24 23:13:00,38.1,29.9,29.91,NE,45,0.0,4.3,72,0.00,,---,0.00,VWS V14.01,2013-02-25 05:13:00,
2013-02-24 23:18:00,37.9,29.7,29.91,North,0,0.0,6.0,72,0.00,,---,0.00,VWS V14.01,2013-02-25 05:18:00,
2013-02-24 23:23:00,37.8,29.9,29.91,NNE,22,0.0,4.3,73,0.00,,---,0.00,VWS V14.01,2013-02-25 05:23:00,
2013-02-24 23:28:00,37.6,29.7,29.91,North,0,0.0,0.0,73,0.00,,---,0.00,VWS V14.01,2013-02-25 05:28:00,
2013-02-24 23:33:00,37.6,30.1,29.91,NNE,22,0.0,3.6,74,0.00,,---,0.00,VWS V14.01,2013-02-25 05:33:00,
2013-02-24 23:38:00,37.4,29.9,29.91,NNE,22,2.9,5.4,74,0.00,,---,0.00,VWS V14.01,2013-02-25 05:38:00,
2013-02-24 23:44:00,37.2,30.0,29.91,NNE,22,3.6,7.4,75,0.00,,---,0.00,VWS V14.01,2013-02-25 05:44:00,
2013-02-24 23:48:00,37.0,29.9,29.91,NE,45,0.0,6.5,75,0.00,,---,0.00,VWS V14.01,2013-02-25 05:48:00,
2013-02-24 23:54:00,36.9,30.0,29.91,NE,45,3.8,5.6,76,0.00,,---,0.00,VWS V14.01,2013-02-25 05:54:00,
2013-02-24 23:58:00,36.7,29.8,29.91,North,0,0.0,3.1,76,0.00,,---,0.00,VWS V14.01,2013-02-25 05:58:00,